Summerfield, North Carolina
Current Conditions -  °F | °C
As of 7:54 AM on Monday 20 Oct 2014 (Local Time) from KGSO Reporting Station
Broken Clouds Broken Clouds  
Wind Chill: 40°   Ceiling: 25000
Heat Index: 43°   Visibility: 10mi
Dew Point: 41°   Wind: 5mph
Humidity: 93%   Direction: 200°SSW
Pressure: 30.13"   Gusts: NA
Location:  36.21°N, 79.9°W
Report Text: KGSO 201154Z 20004KT 10SM BKN250 06/05 A3013 RMK AO2 SLP201 T00610050 10083 20056 51004
Loading
Personal Weather Stations






























Interactive Weather Map
Tropical Storm Tracking
New forecast layout! Learn more

10-Day Weather Forecast

Advertisements
Track Severe Weather on mobile